sensor_id;sensor_type;location;lat;lon;timestamp;P1;durP1;ratioP1;P2;durP2;ratioP2
21743;SDS011;11034;48.556;9.342;2024-02-26T00:02:24;1.63;;;1.00;;
21743;SDS011;11034;48.556;9.342;2024-02-26T00:04:52;1.77;;;0.93;;
21743;SDS011;11034;48.556;9.342;2024-02-26T00:07:20;1.73;;;1.05;;
21743;SDS011;11034;48.556;9.342;2024-02-26T00:09:49;1.73;;;1.10;;
21743;SDS011;11034;48.556;9.342;2024-02-26T00:12:17;1.83;;;1.00;;
21743;SDS011;11034;48.556;9.342;2024-02-26T00:14:45;1.30;;;0.80;;
21743;SDS011;11034;48.556;9.342;2024-02-26T00:17:17;1.15;;;0.90;;
21743;SDS011;11034;48.556;9.342;2024-02-26T00:19:45;0.85;;;0.80;;
21743;SDS011;11034;48.556;9.342;2024-02-26T00:22:13;0.98;;;0.80;;
21743;SDS011;11034;48.556;9.342;2024-02-26T00:24:42;1.08;;;0.98;;
21743;SDS011;11034;48.556;9.342;2024-02-26T00:27:10;2.92;;;1.13;;
21743;SDS011;11034;48.556;9.342;2024-02-26T00:29:38;1.58;;;1.10;;
21743;SDS011;11034;48.556;9.342;2024-02-26T00:32:06;2.22;;;1.08;;
21743;SDS011;11034;48.556;9.342;2024-02-26T00:34:36;1.73;;;1.20;;
21743;SDS011;11034;48.556;9.342;2024-02-26T00:37:04;1.67;;;1.15;;
21743;SDS011;11034;48.556;9.342;2024-02-26T00:39:32;1.80;;;1.30;;
21743;SDS011;11034;48.556;9.342;2024-02-26T00:42:00;1.35;;;1.00;;
21743;SDS011;11034;48.556;9.342;2024-02-26T00:44:29;1.25;;;1.00;;
21743;SDS011;11034;48.556;9.342;2024-02-26T00:46:58;2.60;;;1.10;;
21743;SDS011;11034;48.556;9.342;2024-02-26T00:49:26;2.25;;;1.00;;
21743;SDS011;11034;48.556;9.342;2024-02-26T00:51:55;1.55;;;0.88;;
21743;SDS011;11034;48.556;9.342;2024-02-26T00:54:23;2.60;;;1.17;;
21743;SDS011;11034;48.556;9.342;2024-02-26T00:56:52;1.45;;;1.00;;
21743;SDS011;11034;48.556;9.342;2024-02-26T00:59:20;1.45;;;0.85;;
21743;SDS011;11034;48.556;9.342;2024-02-26T01:01:48;1.05;;;0.85;;
21743;SDS011;11034;48.556;9.342;2024-02-26T01:04:16;1.15;;;0.98;;
21743;SDS011;11034;48.556;9.342;2024-02-26T01:06:44;1.48;;;0.93;;
21743;SDS011;11034;48.556;9.342;2024-02-26T01:09:17;1.63;;;1.00;;
21743;SDS011;11034;48.556;9.342;2024-02-26T01:11:45;1.63;;;1.02;;
21743;SDS011;11034;48.556;9.342;2024-02-26T01:14:13;1.30;;;0.90;;
21743;SDS011;11034;48.556;9.342;2024-02-26T01:16:42;2.78;;;0.98;;
21743;SDS011;11034;48.556;9.342;2024-02-26T01:19:10;1.35;;;0.75;;
21743;SDS011;11034;48.556;9.342;2024-02-26T01:21:38;1.05;;;0.90;;
21743;SDS011;11034;48.556;9.342;2024-02-26T01:24:06;1.15;;;0.90;;
21743;SDS011;11034;48.556;9.342;2024-02-26T01:26:36;1.00;;;0.90;;
21743;SDS011;11034;48.556;9.342;2024-02-26T01:29:04;1.48;;;0.93;;
21743;SDS011;11034;48.556;9.342;2024-02-26T01:31:32;1.25;;;0.90;;
21743;SDS011;11034;48.556;9.342;2024-02-26T01:34:01;1.65;;;0.90;;
21743;SDS011;11034;48.556;9.342;2024-02-26T01:36:29;1.33;;;0.75;;
21743;SDS011;11034;48.556;9.342;2024-02-26T01:38:57;2.03;;;0.90;;
21743;SDS011;11034;48.556;9.342;2024-02-26T01:41:25;1.67;;;0.82;;
21743;SDS011;11034;48.556;9.342;2024-02-26T01:43:55;0.85;;;0.70;;
21743;SDS011;11034;48.556;9.342;2024-02-26T01:46:23;1.15;;;0.77;;
21743;SDS011;11034;48.556;9.342;2024-02-26T01:48:51;1.15;;;0.80;;
21743;SDS011;11034;48.556;9.342;2024-02-26T01:51:20;2.28;;;0.90;;
21743;SDS011;11034;48.556;9.342;2024-02-26T01:53:48;1.15;;;0.75;;
21743;SDS011;11034;48.556;9.342;2024-02-26T01:56:17;2.40;;;0.80;;
21743;SDS011;11034;48.556;9.342;2024-02-26T01:58:46;0.80;;;0.70;;
21743;SDS011;11034;48.556;9.342;2024-02-26T02:01:16;2.45;;;0.80;;
21743;SDS011;11034;48.556;9.342;2024-02-26T02:03:49;0.80;;;0.80;;
21743;SDS011;11034;48.556;9.342;2024-02-26T02:06:17;1.20;;;0.82;;
21743;SDS011;11034;48.556;9.342;2024-02-26T02:08:46;0.98;;;0.80;;
21743;SDS011;11034;48.556;9.342;2024-02-26T02:11:14;0.90;;;0.70;;
21743;SDS011;11034;48.556;9.342;2024-02-26T02:13:43;1.73;;;1.10;;
21743;SDS011;11034;48.556;9.342;2024-02-26T02:16:12;1.15;;;0.80;;
21743;SDS011;11034;48.556;9.342;2024-02-26T02:18:42;2.55;;;0.85;;
21743;SDS011;11034;48.556;9.342;2024-02-26T02:21:11;0.73;;;0.63;;
21743;SDS011;11034;48.556;9.342;2024-02-26T02:23:39;1.33;;;0.80;;
21743;SDS011;11034;48.556;9.342;2024-02-26T02:26:12;0.98;;;0.85;;
21743;SDS011;11034;48.556;9.342;2024-02-26T02:28:41;2.55;;;0.90;;
21743;SDS011;11034;48.556;9.342;2024-02-26T02:31:09;0.80;;;0.70;;
21743;SDS011;11034;48.556;9.342;2024-02-26T02:33:38;2.63;;;0.80;;
21743;SDS011;11034;48.556;9.342;2024-02-26T02:36:07;2.80;;;1.00;;
21743;SDS011;11034;48.556;9.342;2024-02-26T02:38:38;1.30;;;0.90;;
21743;SDS011;11034;48.556;9.342;2024-02-26T02:41:15;1.55;;;0.80;;
21743;SDS011;11034;48.556;9.342;2024-02-26T02:43:43;0.95;;;0.80;;
21743;SDS011;11034;48.556;9.342;2024-02-26T02:46:11;1.88;;;0.82;;
21743;SDS011;11034;48.556;9.342;2024-02-26T02:48:41;1.23;;;0.88;;
21743;SDS011;11034;48.556;9.342;2024-02-26T02:51:10;1.38;;;0.90;;
21743;SDS011;11034;48.556;9.342;2024-02-26T02:53:39;1.73;;;0.95;;
21743;SDS011;11034;48.556;9.342;2024-02-26T02:56:07;2.15;;;1.00;;
21743;SDS011;11034;48.556;9.342;2024-02-26T02:58:36;1.20;;;0.80;;
21743;SDS011;11034;48.556;9.342;2024-02-26T03:01:04;0.85;;;0.75;;
21743;SDS011;11034;48.556;9.342;2024-02-26T03:03:32;1.50;;;0.90;;
21743;SDS011;11034;48.556;9.342;2024-02-26T03:06:00;1.30;;;0.80;;
21743;SDS011;11034;48.556;9.342;2024-02-26T03:08:28;1.38;;;1.08;;
21743;SDS011;11034;48.556;9.342;2024-02-26T03:10:59;1.20;;;1.00;;
21743;SDS011;11034;48.556;9.342;2024-02-26T03:13:27;1.00;;;0.88;;
21743;SDS011;11034;48.556;9.342;2024-02-26T03:15:55;0.85;;;0.80;;
21743;SDS011;11034;48.556;9.342;2024-02-26T03:18:24;2.42;;;1.00;;
21743;SDS011;11034;48.556;9.342;2024-02-26T03:20:52;1.77;;;1.10;;
21743;SDS011;11034;48.556;9.342;2024-02-26T03:23:20;1.10;;;0.90;;
21743;SDS011;11034;48.556;9.342;2024-02-26T03:25:49;1.63;;;1.00;;
21743;SDS011;11034;48.556;9.342;2024-02-26T03:28:17;1.60;;;0.90;;
21743;SDS011;11034;48.556;9.342;2024-02-26T03:30:45;1.70;;;0.90;;
21743;SDS011;11034;48.556;9.342;2024-02-26T03:33:13;1.10;;;0.80;;
21743;SDS011;11034;48.556;9.342;2024-02-26T03:35:42;1.15;;;0.82;;
21743;SDS011;11034;48.556;9.342;2024-02-26T03:38:10;1.65;;;0.77;;
21743;SDS011;11034;48.556;9.342;2024-02-26T03:40:38;1.67;;;0.90;;
21743;SDS011;11034;48.556;9.342;2024-02-26T03:43:06;5.32;;;1.00;;
21743;SDS011;11034;48.556;9.342;2024-02-26T03:45:36;1.10;;;0.90;;
21743;SDS011;11034;48.556;9.342;2024-02-26T03:48:04;1.08;;;0.98;;
21743;SDS011;11034;48.556;9.342;2024-02-26T03:50:33;1.60;;;1.00;;
21743;SDS011;11034;48.556;9.342;2024-02-26T03:53:01;1.10;;;0.90;;
21743;SDS011;11034;48.556;9.342;2024-02-26T03:55:30;1.77;;;1.10;;
21743;SDS011;11034;48.556;9.342;2024-02-26T03:57:58;1.48;;;1.08;;
21743;SDS011;11034;48.556;9.342;2024-02-26T04:00:26;0.80;;;0.77;;
21743;SDS011;11034;48.556;9.342;2024-02-26T04:02:57;3.90;;;0.98;;
21743;SDS011;11034;48.556;9.342;2024-02-26T04:05:26;1.70;;;0.88;;
21743;SDS011;11034;48.556;9.342;2024-02-26T04:07:54;1.80;;;1.17;;
21743;SDS011;11034;48.556;9.342;2024-02-26T04:10:22;1.75;;;0.90;;
21743;SDS011;11034;48.556;9.342;2024-02-26T04:12:50;2.10;;;0.90;;
21743;SDS011;11034;48.556;9.342;2024-02-26T04:15:19;2.75;;;0.90;;
21743;SDS011;11034;48.556;9.342;2024-02-26T04:17:47;1.60;;;1.00;;
21743;SDS011;11034;48.556;9.342;2024-02-26T04:20:16;1.08;;;0.88;;
21743;SDS011;11034;48.556;9.342;2024-02-26T04:22:45;1.77;;;1.10;;
21743;SDS011;11034;48.556;9.342;2024-02-26T04:25:13;1.67;;;1.00;;
21743;SDS011;11034;48.556;9.342;2024-02-26T04:27:41;2.10;;;0.90;;
21743;SDS011;11034;48.556;9.342;2024-02-26T04:30:09;1.13;;;0.80;;
21743;SDS011;11034;48.556;9.342;2024-02-26T04:32:38;0.98;;;0.88;;
21743;SDS011;11034;48.556;9.342;2024-02-26T04:35:07;1.50;;;0.93;;
21743;SDS011;11034;48.556;9.342;2024-02-26T04:37:36;1.92;;;1.00;;
21743;SDS011;11034;48.556;9.342;2024-02-26T04:40:05;1.55;;;1.00;;
21743;SDS011;11034;48.556;9.342;2024-02-26T04:42:34;1.65;;;1.05;;
21743;SDS011;11034;48.556;9.342;2024-02-26T04:45:02;1.38;;;0.75;;
21743;SDS011;11034;48.556;9.342;2024-02-26T04:47:31;1.30;;;0.90;;
21743;SDS011;11034;48.556;9.342;2024-02-26T04:49:59;2.05;;;0.90;;
21743;SDS011;11034;48.556;9.342;2024-02-26T04:52:27;1.05;;;0.85;;
21743;SDS011;11034;48.556;9.342;2024-02-26T04:54:57;1.80;;;1.00;;
21743;SDS011;11034;48.556;9.342;2024-02-26T04:57:26;1.35;;;1.05;;
21743;SDS011;11034;48.556;9.342;2024-02-26T04:59:54;0.75;;;0.75;;
21743;SDS011;11034;48.556;9.342;2024-02-26T05:02:22;1.60;;;0.93;;
21743;SDS011;11034;48.556;9.342;2024-02-26T05:04:51;1.48;;;1.00;;
21743;SDS011;11034;48.556;9.342;2024-02-26T05:07:19;1.02;;;0.85;;
21743;SDS011;11034;48.556;9.342;2024-02-26T05:09:47;3.22;;;1.40;;
21743;SDS011;11034;48.556;9.342;2024-02-26T05:12:17;1.83;;;1.10;;
21743;SDS011;11034;48.556;9.342;2024-02-26T05:14:46;1.73;;;1.20;;
21743;SDS011;11034;48.556;9.342;2024-02-26T05:17:14;0.95;;;0.88;;
21743;SDS011;11034;48.556;9.342;2024-02-26T05:19:42;1.05;;;0.85;;
21743;SDS011;11034;48.556;9.342;2024-02-26T05:22:11;1.35;;;0.80;;
21743;SDS011;11034;48.556;9.342;2024-02-26T05:24:40;1.25;;;0.98;;
21743;SDS011;11034;48.556;9.342;2024-02-26T05:27:08;1.40;;;0.90;;
21743;SDS011;11034;48.556;9.342;2024-02-26T05:29:37;1.85;;;0.88;;
21743;SDS011;11034;48.556;9.342;2024-02-26T05:32:05;2.35;;;1.27;;
21743;SDS011;11034;48.556;9.342;2024-02-26T05:34:34;1.15;;;1.00;;
21743;SDS011;11034;48.556;9.342;2024-02-26T05:37:02;1.85;;;1.35;;
21743;SDS011;11034;48.556;9.342;2024-02-26T05:39:30;2.03;;;1.40;;
21743;SDS011;11034;48.556;9.342;2024-02-26T05:41:59;1.77;;;1.30;;
21743;SDS011;11034;48.556;9.342;2024-02-26T05:44:27;4.25;;;1.90;;
21743;SDS011;11034;48.556;9.342;2024-02-26T05:46:56;2.92;;;1.20;;
21743;SDS011;11034;48.556;9.342;2024-02-26T05:49:24;2.15;;;1.08;;
21743;SDS011;11034;48.556;9.342;2024-02-26T05:51:53;1.95;;;1.00;;
21743;SDS011;11034;48.556;9.342;2024-02-26T05:54:21;1.60;;;1.10;;
21743;SDS011;11034;48.556;9.342;2024-02-26T05:56:49;1.52;;;1.00;;
21743;SDS011;11034;48.556;9.342;2024-02-26T05:59:18;1.27;;;1.00;;
21743;SDS011;11034;48.556;9.342;2024-02-26T06:01:47;0.98;;;0.80;;
21743;SDS011;11034;48.556;9.342;2024-02-26T06:04:17;3.30;;;1.10;;
21743;SDS011;11034;48.556;9.342;2024-02-26T06:06:45;1.42;;;1.00;;
21743;SDS011;11034;48.556;9.342;2024-02-26T06:09:14;1.00;;;0.90;;
21743;SDS011;11034;48.556;9.342;2024-02-26T06:11:42;3.03;;;0.98;;
21743;SDS011;11034;48.556;9.342;2024-02-26T06:14:10;1.42;;;1.20;;
21743;SDS011;11034;48.556;9.342;2024-02-26T06:16:40;2.08;;;1.30;;
21743;SDS011;11034;48.556;9.342;2024-02-26T06:19:10;2.15;;;1.30;;
21743;SDS011;11034;48.556;9.342;2024-02-26T06:21:41;2.47;;;1.77;;
21743;SDS011;11034;48.556;9.342;2024-02-26T06:24:09;4.43;;;2.90;;
21743;SDS011;11034;48.556;9.342;2024-02-26T06:26:37;2.15;;;1.50;;
21743;SDS011;11034;48.556;9.342;2024-02-26T06:29:05;1.92;;;1.23;;
21743;SDS011;11034;48.556;9.342;2024-02-26T06:31:33;3.88;;;1.70;;
21743;SDS011;11034;48.556;9.342;2024-02-26T06:34:01;1.80;;;1.50;;
21743;SDS011;11034;48.556;9.342;2024-02-26T06:36:30;8.68;;;4.82;;
21743;SDS011;11034;48.556;9.342;2024-02-26T06:39:01;2.13;;;1.60;;
21743;SDS011;11034;48.556;9.342;2024-02-26T06:41:29;1.40;;;1.08;;
21743;SDS011;11034;48.556;9.342;2024-02-26T06:43:57;3.92;;;1.05;;
21743;SDS011;11034;48.556;9.342;2024-02-26T06:46:25;0.82;;;0.80;;
21743;SDS011;11034;48.556;9.342;2024-02-26T06:48:57;1.42;;;0.90;;
21743;SDS011;11034;48.556;9.342;2024-02-26T06:51:28;1.33;;;0.93;;
21743;SDS011;11034;48.556;9.342;2024-02-26T06:53:57;1.63;;;1.15;;
21743;SDS011;11034;48.556;9.342;2024-02-26T06:56:27;2.05;;;1.40;;
21743;SDS011;11034;48.556;9.342;2024-02-26T06:58:55;2.03;;;1.45;;
21743;SDS011;11034;48.556;9.342;2024-02-26T07:01:24;7.47;;;3.10;;
21743;SDS011;11034;48.556;9.342;2024-02-26T07:03:52;14.80;;;7.78;;
21743;SDS011;11034;48.556;9.342;2024-02-26T07:06:23;12.25;;;6.50;;
21743;SDS011;11034;48.556;9.342;2024-02-26T07:08:51;14.80;;;6.35;;
21743;SDS011;11034;48.556;9.342;2024-02-26T07:11:20;11.55;;;5.93;;
21743;SDS011;11034;48.556;9.342;2024-02-26T07:13:52;14.60;;;7.50;;
21743;SDS011;11034;48.556;9.342;2024-02-26T07:16:23;15.10;;;7.97;;
21743;SDS011;11034;48.556;9.342;2024-02-26T07:18:52;16.27;;;8.35;;
21743;SDS011;11034;48.556;9.342;2024-02-26T07:21:21;11.13;;;7.20;;
21743;SDS011;11034;48.556;9.342;2024-02-26T07:23:49;7.47;;;4.43;;
21743;SDS011;11034;48.556;9.342;2024-02-26T07:26:17;8.10;;;5.07;;
21743;SDS011;11034;48.556;9.342;2024-02-26T07:28:46;8.45;;;4.60;;
21743;SDS011;11034;48.556;9.342;2024-02-26T07:31:17;9.25;;;5.15;;
21743;SDS011;11034;48.556;9.342;2024-02-26T07:33:45;6.43;;;4.50;;
21743;SDS011;11034;48.556;9.342;2024-02-26T07:36:13;5.15;;;2.90;;
21743;SDS011;11034;48.556;9.342;2024-02-26T07:38:42;4.50;;;2.90;;
21743;SDS011;11034;48.556;9.342;2024-02-26T07:41:12;6.85;;;2.70;;
21743;SDS011;11034;48.556;9.342;2024-02-26T07:43:41;5.13;;;3.60;;
21743;SDS011;11034;48.556;9.342;2024-02-26T07:46:10;5.07;;;3.42;;
21743;SDS011;11034;48.556;9.342;2024-02-26T07:48:41;5.72;;;3.50;;
21743;SDS011;11034;48.556;9.342;2024-02-26T07:51:11;3.60;;;2.28;;
21743;SDS011;11034;48.556;9.342;2024-02-26T07:53:40;3.03;;;1.60;;
21743;SDS011;11034;48.556;9.342;2024-02-26T07:56:09;2.55;;;1.70;;
21743;SDS011;11034;48.556;9.342;2024-02-26T07:58:37;2.10;;;1.42;;
21743;SDS011;11034;48.556;9.342;2024-02-26T08:01:05;2.50;;;1.25;;
21743;SDS011;11034;48.556;9.342;2024-02-26T08:03:33;2.60;;;1.80;;
21743;SDS011;11034;48.556;9.342;2024-02-26T08:06:03;2.30;;;1.70;;
21743;SDS011;11034;48.556;9.342;2024-02-26T08:08:32;5.80;;;3.08;;
21743;SDS011;11034;48.556;9.342;2024-02-26T08:11:00;5.47;;;3.58;;
21743;SDS011;11034;48.556;9.342;2024-02-26T08:13:29;4.22;;;2.40;;
21743;SDS011;11034;48.556;9.342;2024-02-26T08:15:57;3.97;;;1.80;;
21743;SDS011;11034;48.556;9.342;2024-02-26T08:18:26;5.05;;;1.55;;
21743;SDS011;11034;48.556;9.342;2024-02-26T08:20:54;3.97;;;1.48;;
21743;SDS011;11034;48.556;9.342;2024-02-26T08:23:24;2.80;;;2.05;;
21743;SDS011;11034;48.556;9.342;2024-02-26T08:25:52;3.90;;;2.40;;
21743;SDS011;11034;48.556;9.342;2024-02-26T08:28:20;5.13;;;2.50;;
21743;SDS011;11034;48.556;9.342;2024-02-26T08:30:49;4.53;;;2.83;;
21743;SDS011;11034;48.556;9.342;2024-02-26T08:33:17;5.45;;;2.22;;
21743;SDS011;11034;48.556;9.342;2024-02-26T08:35:45;3.10;;;1.92;;
21743;SDS011;11034;48.556;9.342;2024-02-26T08:38:13;4.82;;;3.35;;
21743;SDS011;11034;48.556;9.342;2024-02-26T08:40:44;7.68;;;4.30;;
21743;SDS011;11034;48.556;9.342;2024-02-26T08:43:12;3.97;;;2.50;;
21743;SDS011;11034;48.556;9.342;2024-02-26T08:45:40;7.07;;;4.13;;
21743;SDS011;11034;48.556;9.342;2024-02-26T08:48:08;3.47;;;2.80;;
21743;SDS011;11034;48.556;9.342;2024-02-26T08:50:37;3.35;;;2.20;;
21743;SDS011;11034;48.556;9.342;2024-02-26T08:53:06;3.30;;;2.05;;
21743;SDS011;11034;48.556;9.342;2024-02-26T08:55:34;3.58;;;2.28;;
21743;SDS011;11034;48.556;9.342;2024-02-26T08:58:04;3.38;;;2.20;;
21743;SDS011;11034;48.556;9.342;2024-02-26T09:00:32;2.38;;;1.70;;
21743;SDS011;11034;48.556;9.342;2024-02-26T09:03:00;4.25;;;2.10;;
21743;SDS011;11034;48.556;9.342;2024-02-26T09:05:31;6.60;;;2.00;;
21743;SDS011;11034;48.556;9.342;2024-02-26T09:07:59;2.83;;;2.00;;
21743;SDS011;11034;48.556;9.342;2024-02-26T09:10:28;3.17;;;2.17;;
21743;SDS011;11034;48.556;9.342;2024-02-26T09:12:56;3.67;;;2.00;;
21743;SDS011;11034;48.556;9.342;2024-02-26T09:15:25;4.32;;;2.00;;
21743;SDS011;11034;48.556;9.342;2024-02-26T09:17:54;7.65;;;2.10;;
21743;SDS011;11034;48.556;9.342;2024-02-26T09:20:22;4.13;;;2.30;;
21743;SDS011;11034;48.556;9.342;2024-02-26T09:22:51;3.00;;;2.03;;
21743;SDS011;11034;48.556;9.342;2024-02-26T09:25:20;4.10;;;2.35;;
21743;SDS011;11034;48.556;9.342;2024-02-26T09:27:48;4.30;;;2.78;;
21743;SDS011;11034;48.556;9.342;2024-02-26T09:30:17;3.75;;;2.63;;
21743;SDS011;11034;48.556;9.342;2024-02-26T09:32:47;4.45;;;2.42;;
21743;SDS011;11034;48.556;9.342;2024-02-26T09:35:15;4.90;;;2.65;;
21743;SDS011;11034;48.556;9.342;2024-02-26T09:37:44;6.25;;;3.30;;
21743;SDS011;11034;48.556;9.342;2024-02-26T09:40:13;6.32;;;2.85;;
21743;SDS011;11034;48.556;9.342;2024-02-26T09:42:42;3.83;;;2.30;;
21743;SDS011;11034;48.556;9.342;2024-02-26T09:45:12;5.13;;;2.33;;
21743;SDS011;11034;48.556;9.342;2024-02-26T09:47:48;4.25;;;2.22;;
21743;SDS011;11034;48.556;9.342;2024-02-26T09:50:17;4.13;;;2.25;;
21743;SDS011;11034;48.556;9.342;2024-02-26T09:52:49;3.70;;;1.80;;
21743;SDS011;11034;48.556;9.342;2024-02-26T09:55:19;4.10;;;2.10;;
21743;SDS011;11034;48.556;9.342;2024-02-26T09:57:47;3.22;;;1.90;;
21743;SDS011;11034;48.556;9.342;2024-02-26T10:00:19;5.07;;;2.20;;
21743;SDS011;11034;48.556;9.342;2024-02-26T10:02:51;4.05;;;1.90;;
21743;SDS011;11034;48.556;9.342;2024-02-26T10:05:20;4.38;;;2.17;;
21743;SDS011;11034;48.556;9.342;2024-02-26T10:07:49;5.15;;;2.35;;
21743;SDS011;11034;48.556;9.342;2024-02-26T10:10:19;4.38;;;2.20;;
21743;SDS011;11034;48.556;9.342;2024-02-26T10:12:47;4.53;;;2.30;;
21743;SDS011;11034;48.556;9.342;2024-02-26T10:15:16;3.63;;;2.50;;
21743;SDS011;11034;48.556;9.342;2024-02-26T10:17:44;4.18;;;2.53;;
21743;SDS011;11034;48.556;9.342;2024-02-26T10:20:15;3.17;;;2.17;;
21743;SDS011;11034;48.556;9.342;2024-02-26T10:22:45;5.93;;;2.25;;
21743;SDS011;11034;48.556;9.342;2024-02-26T10:25:13;9.00;;;2.85;;
21743;SDS011;11034;48.556;9.342;2024-02-26T10:27:42;5.97;;;2.45;;
21743;SDS011;11034;48.556;9.342;2024-02-26T10:30:15;5.72;;;3.80;;
21743;SDS011;11034;48.556;9.342;2024-02-26T10:32:46;8.05;;;2.78;;
21743;SDS011;11034;48.556;9.342;2024-02-26T10:35:16;11.88;;;4.78;;
21743;SDS011;11034;48.556;9.342;2024-02-26T10:37:50;6.88;;;3.15;;
21743;SDS011;11034;48.556;9.342;2024-02-26T10:40:19;11.70;;;6.53;;
21743;SDS011;11034;48.556;9.342;2024-02-26T10:42:47;6.72;;;3.35;;
21743;SDS011;11034;48.556;9.342;2024-02-26T10:45:15;5.22;;;2.50;;
21743;SDS011;11034;48.556;9.342;2024-02-26T10:47:45;4.95;;;3.10;;
21743;SDS011;11034;48.556;9.342;2024-02-26T10:50:14;4.65;;;2.30;;
21743;SDS011;11034;48.556;9.342;2024-02-26T10:52:45;4.28;;;2.60;;
21743;SDS011;11034;48.556;9.342;2024-02-26T10:55:14;5.35;;;3.25;;
21743;SDS011;11034;48.556;9.342;2024-02-26T10:57:47;6.38;;;2.47;;
21743;SDS011;11034;48.556;9.342;2024-02-26T11:00:18;6.00;;;3.30;;
21743;SDS011;11034;48.556;9.342;2024-02-26T11:02:47;5.97;;;2.40;;
21743;SDS011;11034;48.556;9.342;2024-02-26T11:05:16;7.18;;;4.13;;
21743;SDS011;11034;48.556;9.342;2024-02-26T11:07:46;5.35;;;2.35;;
21743;SDS011;11034;48.556;9.342;2024-02-26T11:10:17;5.53;;;3.67;;
21743;SDS011;11034;48.556;9.342;2024-02-26T11:12:46;8.00;;;2.45;;
21743;SDS011;11034;48.556;9.342;2024-02-26T11:15:17;6.05;;;2.60;;
21743;SDS011;11034;48.556;9.342;2024-02-26T11:17:48;7.05;;;3.58;;
21743;SDS011;11034;48.556;9.342;2024-02-26T11:20:17;3.00;;;1.70;;
21743;SDS011;11034;48.556;9.342;2024-02-26T11:22:48;3.85;;;2.45;;
21743;SDS011;11034;48.556;9.342;2024-02-26T11:25:16;6.28;;;2.22;;
21743;SDS011;11034;48.556;9.342;2024-02-26T11:27:47;3.78;;;2.17;;
21743;SDS011;11034;48.556;9.342;2024-02-26T11:30:19;3.90;;;1.90;;
21743;SDS011;11034;48.556;9.342;2024-02-26T11:32:50;7.75;;;1.80;;
21743;SDS011;11034;48.556;9.342;2024-02-26T11:35:18;4.97;;;3.58;;
21743;SDS011;11034;48.556;9.342;2024-02-26T11:37:54;3.05;;;2.20;;
21743;SDS011;11034;48.556;9.342;2024-02-26T11:40:24;3.25;;;2.70;;
21743;SDS011;11034;48.556;9.342;2024-02-26T11:42:53;5.28;;;2.00;;
21743;SDS011;11034;48.556;9.342;2024-02-26T11:45:47;3.17;;;2.20;;
21743;SDS011;11034;48.556;9.342;2024-02-26T11:48:21;2.63;;;1.92;;
21743;SDS011;11034;48.556;9.342;2024-02-26T11:50:51;3.65;;;1.92;;
21743;SDS011;11034;48.556;9.342;2024-02-26T11:53:30;2.88;;;2.00;;
21743;SDS011;11034;48.556;9.342;2024-02-26T11:58:57;3.00;;;1.83;;
21743;SDS011;11034;48.556;9.342;2024-02-26T12:01:40;5.07;;;1.65;;
21743;SDS011;11034;48.556;9.342;2024-02-26T12:04:13;1.98;;;1.77;;
21743;SDS011;11034;48.556;9.342;2024-02-26T12:06:44;3.35;;;1.88;;
21743;SDS011;11034;48.556;9.342;2024-02-26T12:12:00;2.10;;;1.80;;
21743;SDS011;11034;48.556;9.342;2024-02-26T12:14:37;4.20;;;2.45;;
21743;SDS011;11034;48.556;9.342;2024-02-26T12:17:07;2.33;;;1.70;;
21743;SDS011;11034;48.556;9.342;2024-02-26T12:19:46;8.30;;;4.57;;
21743;SDS011;11034;48.556;9.342;2024-02-26T12:22:15;4.30;;;2.08;;
21743;SDS011;11034;48.556;9.342;2024-02-26T12:24:45;3.08;;;1.70;;
21743;SDS011;11034;48.556;9.342;2024-02-26T12:27:13;4.30;;;1.67;;
21743;SDS011;11034;48.556;9.342;2024-02-26T12:29:42;2.70;;;1.67;;
21743;SDS011;11034;48.556;9.342;2024-02-26T12:32:10;3.38;;;1.90;;
21743;SDS011;11034;48.556;9.342;2024-02-26T12:34:40;2.53;;;1.50;;
21743;SDS011;11034;48.556;9.342;2024-02-26T12:37:08;2.90;;;1.50;;
21743;SDS011;11034;48.556;9.342;2024-02-26T12:39:37;2.80;;;1.60;;
21743;SDS011;11034;48.556;9.342;2024-02-26T12:42:07;2.42;;;1.80;;
21743;SDS011;11034;48.556;9.342;2024-02-26T12:44:36;2.65;;;1.60;;
21743;SDS011;11034;48.556;9.342;2024-02-26T12:47:05;2.55;;;1.50;;
21743;SDS011;11034;48.556;9.342;2024-02-26T12:49:33;2.30;;;1.60;;
21743;SDS011;11034;48.556;9.342;2024-02-26T12:52:02;3.53;;;1.55;;
21743;SDS011;11034;48.556;9.342;2024-02-26T12:54:30;4.05;;;1.73;;
21743;SDS011;11034;48.556;9.342;2024-02-26T12:57:01;2.28;;;1.60;;
21743;SDS011;11034;48.556;9.342;2024-02-26T12:59:32;2.10;;;1.55;;
21743;SDS011;11034;48.556;9.342;2024-02-26T13:02:01;3.15;;;1.67;;
21743;SDS011;11034;48.556;9.342;2024-02-26T13:04:33;2.28;;;1.27;;
21743;SDS011;11034;48.556;9.342;2024-02-26T13:07:05;3.17;;;1.55;;
21743;SDS011;11034;48.556;9.342;2024-02-26T13:09:33;3.67;;;1.83;;
21743;SDS011;11034;48.556;9.342;2024-02-26T13:12:03;3.95;;;2.17;;
21743;SDS011;11034;48.556;9.342;2024-02-26T13:14:34;5.03;;;1.70;;
21743;SDS011;11034;48.556;9.342;2024-02-26T13:17:03;3.97;;;1.40;;
21743;SDS011;11034;48.556;9.342;2024-02-26T13:19:31;2.53;;;1.40;;
21743;SDS011;11034;48.556;9.342;2024-02-26T13:22:04;2.20;;;1.30;;
21743;SDS011;11034;48.556;9.342;2024-02-26T13:24:33;1.80;;;1.30;;
21743;SDS011;11034;48.556;9.342;2024-02-26T13:27:01;1.52;;;1.30;;
21743;SDS011;11034;48.556;9.342;2024-02-26T13:29:34;2.40;;;1.38;;
21743;SDS011;11034;48.556;9.342;2024-02-26T13:32:02;2.22;;;1.50;;
21743;SDS011;11034;48.556;9.342;2024-02-26T13:34:32;1.60;;;1.23;;
21743;SDS011;11034;48.556;9.342;2024-02-26T13:37:02;3.33;;;1.20;;
21743;SDS011;11034;48.556;9.342;2024-02-26T13:39:32;3.08;;;1.10;;
21743;SDS011;11034;48.556;9.342;2024-02-26T13:42:04;2.40;;;1.30;;
21743;SDS011;11034;48.556;9.342;2024-02-26T13:44:34;3.17;;;1.38;;
21743;SDS011;11034;48.556;9.342;2024-02-26T13:47:06;2.50;;;1.48;;
21743;SDS011;11034;48.556;9.342;2024-02-26T13:49:34;3.47;;;1.50;;
21743;SDS011;11034;48.556;9.342;2024-02-26T13:52:02;2.67;;;1.58;;
21743;SDS011;11034;48.556;9.342;2024-02-26T13:54:31;3.30;;;1.70;;
21743;SDS011;11034;48.556;9.342;2024-02-26T13:57:01;2.33;;;1.75;;
21743;SDS011;11034;48.556;9.342;2024-02-26T13:59:29;4.13;;;1.90;;
21743;SDS011;11034;48.556;9.342;2024-02-26T14:02:02;3.30;;;1.70;;
21743;SDS011;11034;48.556;9.342;2024-02-26T14:04:30;2.80;;;2.30;;
21743;SDS011;11034;48.556;9.342;2024-02-26T14:06:59;2.67;;;1.50;;
21743;SDS011;11034;48.556;9.342;2024-02-26T14:09:28;4.05;;;1.75;;
21743;SDS011;11034;48.556;9.342;2024-02-26T14:12:11;2.97;;;1.70;;
21743;SDS011;11034;48.556;9.342;2024-02-26T14:14:39;2.95;;;1.80;;
21743;SDS011;11034;48.556;9.342;2024-02-26T14:17:10;4.05;;;1.60;;
21743;SDS011;11034;48.556;9.342;2024-02-26T14:19:39;3.70;;;1.98;;
21743;SDS011;11034;48.556;9.342;2024-02-26T14:22:10;4.75;;;1.60;;
21743;SDS011;11034;48.556;9.342;2024-02-26T14:24:38;6.47;;;1.73;;
21743;SDS011;11034;48.556;9.342;2024-02-26T14:27:07;3.63;;;1.73;;
21743;SDS011;11034;48.556;9.342;2024-02-26T14:29:37;4.57;;;1.60;;
21743;SDS011;11034;48.556;9.342;2024-02-26T14:32:06;2.88;;;1.23;;
21743;SDS011;11034;48.556;9.342;2024-02-26T14:34:36;1.77;;;1.30;;
21743;SDS011;11034;48.556;9.342;2024-02-26T14:37:04;3.10;;;1.20;;
21743;SDS011;11034;48.556;9.342;2024-02-26T14:39:33;3.50;;;0.90;;
21743;SDS011;11034;48.556;9.342;2024-02-26T14:42:05;0.98;;;0.80;;
21743;SDS011;11034;48.556;9.342;2024-02-26T14:44:33;1.10;;;0.70;;
21743;SDS011;11034;48.556;9.342;2024-02-26T14:47:01;2.40;;;1.00;;
21743;SDS011;11034;48.556;9.342;2024-02-26T14:49:29;0.77;;;0.70;;
21743;SDS011;11034;48.556;9.342;2024-02-26T14:52:00;1.27;;;0.90;;
21743;SDS011;11034;48.556;9.342;2024-02-26T14:54:29;1.00;;;0.85;;
21743;SDS011;11034;48.556;9.342;2024-02-26T14:57:00;1.40;;;0.75;;
21743;SDS011;11034;48.556;9.342;2024-02-26T14:59:28;0.85;;;0.70;;
21743;SDS011;11034;48.556;9.342;2024-02-26T15:01:57;1.40;;;1.02;;
21743;SDS011;11034;48.556;9.342;2024-02-26T15:04:26;2.35;;;1.65;;
21743;SDS011;11034;48.556;9.342;2024-02-26T15:06:54;4.78;;;1.40;;